Date,TemperatureHighF,TemperatureAvgF,TemperatureLowF,DewpointHighF,DewpointAvgF,DewpointLowF,HumidityHigh,HumidityAvg,HumidityLow,PressureMaxIn,PressureMinIn,WindSpeedMaxMPH,WindSpeedAvgMPH,GustSpeedMaxMPH,PrecipitationSumIn
2013-1-1,28.2,25.0,21.6,20.9,16.2,11.8,83,69,63,30.13,30.01,5,2,14,0.00
2013-1-2,27.5,23.3,16.7,20.4,14.6,5.6,78,69,56,30.15,30.08,4,1,12,0.00
2013-1-3,31.3,26.3,16.4,29.3,20.2,5.4,100,78,61,30.16,30.05,8,3,19,0.00
2013-1-4,35.0,29.6,23.9,26.7,22.8,16.7,87,76,62,30.16,30.06,6,4,22,0.00
2013-1-5,36.2,30.7,22.4,33.7,26.9,20.7,100,87,63,30.20,29.94,4,1,16,0.00
2013-1-6,36.3,34.2,31.3,36.0,30.3,22.4,100,86,62,30.25,29.83,9,4,22,0.03
2013-1-7,35.6,29.6,22.2,28.4,22.5,13.9,100,76,46,30.31,30.08,4,1,17,0.00
2013-1-8,40.2,32.1,25.7,27.8,25.4,21.9,98,77,57,30.16,30.03,4,1,14,0.00
2013-1-9,45.7,40.3,31.5,35.5,30.7,25.9,86,69,50,30.41,29.97,9,4,24,0.00
2013-1-10,42.6,33.6,24.1,38.2,28.5,24.1,100,84,51,30.48,29.97,7,3,17,0.11
2013-1-11,53.1,29.8,37.8,52.9,-8.0,-99.9,100,62,100,29.96,29.65,6,-377,21,0.14
2013-1-12,56.5,48.4,37.5,52.0,44.8,33.4,100,88,62,29.91,29.67,6,1,17,0.08
2013-1-13,37.3,23.4,22.2,37.3,-1.9,-99.9,100,72,79,30.13,29.78,8,-243,17,0.09
2013-1-14,24.8,22.3,18.3,18.3,16.0,13.6,96,77,66,30.41,30.13,8,2,19,0.00
2013-1-15,19.7,17.1,15.2,19.5,17.0,15.2,100,100,96,30.39,30.36,0,0,0,0.00
2013-1-27,33.1,31.1,28.1,33.1,31.0,28.1,100,100,97,30.19,29.94,10,4,21,0.13
2013-1-28,37.6,12.5,32.9,37.6,-52.4,-99.9,100,35,100,29.95,29.79,5,-649,14,0.17
2013-1-29,58.6,18.3,51.6,58.4,-48.9,-99.9,100,33,100,29.86,29.33,6,-672,17,0.26
2013-1-30,51.9,25.4,26.6,51.9,-9.0,-99.9,100,66,100,29.40,29.07,12,-342,25,0.57
2013-1-31,26.6,18.7,14.4,26.6,17.3,9.3,100,94,72,29.97,29.42,12,7,26,0.01
2013-2-1,15.2,12.5,10.9,15.2,11.4,6.0,100,96,79,30.28,29.97,8,3,19,0.00
2013-2-2,23.8,17.1,14.1,23.8,15.8,6.7,100,95,73,30.18,29.96,3,0,10,0.00
2013-2-3,22.5,18.7,13.6,20.2,14.7,7.8,100,85,65,30.00,29.89,8,3,21,0.00
2013-2-4,26.7,22.2,17.3,26.6,21.7,15.4,100,98,75,30.00,29.83,5,1,12,0.00
2013-2-5,29.8,23.5,14.0,29.7,22.8,14.0,100,97,77,29.98,29.77,6,2,12,0.00
2013-2-6,34.4,28.4,18.1,25.8,20.7,16.2,100,74,54,30.22,29.98,7,1,18,0.01
2013-2-7,35.9,31.4,28.7,35.8,30.3,24.9,100,96,82,30.14,29.79,5,1,12,0.18
2013-2-8,32.7,29.2,24.1,32.7,28.1,24.0,100,96,76,30.33,29.79,8,4,17,0.03
2013-2-9,34.3,25.2,13.1,25.4,21.2,13.1,100,86,64,30.39,30.12,6,2,12,0.01
2013-2-10,42.3,32.9,27.2,42.3,23.3,-99.9,100,81,70,30.12,29.49,8,-57,21,0.44
2013-2-11,46.0,31.7,30.4,45.4,17.5,-99.9,100,72,67,29.91,29.47,11,-82,26,0.00
2013-2-12,30.4,28.5,26.9,26.8,24.6,21.9,94,85,72,30.05,29.90,9,3,20,0.00
2013-2-13,43.2,31.5,22.1,32.3,27.4,22.1,100,86,55,29.90,29.67,3,1,8,0.00
2013-2-14,39.6,34.7,27.6,37.3,33.1,27.6,100,94,76,29.88,29.61,10,4,22,0.00
2013-2-15,33.5,26.3,22.4,32.7,20.3,11.5,100,79,54,30.13,29.88,8,3,16,0.00
2013-2-16,24.2,19.8,16.7,23.1,13.3,4.2,100,77,55,30.10,30.04,10,4,22,0.00
2013-2-17,28.5,18.3,7.7,17.7,11.5,6.8,100,78,40,30.20,30.09,4,1,12,0.06
2013-2-18,48.9,36.7,21.0,47.6,28.4,11.0,100,73,55,30.08,29.36,7,4,18,0.20
2013-2-19,44.1,22.3,16.9,43.9,21.7,12.1,100,98,81,30.03,29.34,10,6,22,0.12
2013-2-20,24.1,20.1,16.5,19.9,16.5,10.8,100,86,75,30.30,30.04,10,6,21,0.00
2013-2-21,27.5,23.9,20.8,20.5,18.9,16.3,93,81,71,30.35,30.07,9,2,19,0.00
2013-2-22,32.9,27.1,21.9,32.9,26.2,15.8,100,96,76,30.07,29.79,8,3,20,0.00
2013-2-23,30.0,27.9,26.9,29.5,23.6,18.1,100,84,69,29.91,29.84,4,2,16,0.00
2013-2-24,34.4,29.4,21.6,30.3,25.9,19.5,100,87,73,30.12,29.88,6,2,13,0.07
2013-2-25,41.2,28.8,15.2,28.8,21.5,15.2,100,77,46,30.18,30.01,4,1,10,0.01
2013-2-26,36.9,32.1,29.3,34.0,27.9,21.7,100,85,57,30.01,29.43,6,2,14,0.25
2013-2-27,34.0,6.4,32.5,34.0,-74.4,-99.9,100,19,100,29.56,29.42,0,-803,5,0.03
2013-2-28,35.6,26.1,30.7,35.0,4.5,-99.9,100,78,92,29.96,29.53,11,-208,22,0.42
2013-3-1,34.3,29.3,22.5,29.7,23.5,17.7,100,79,60,30.12,29.95,8,2,16,0.00
2013-3-2,27.9,25.2,19.4,24.5,18.2,11.9,100,75,63,30.13,30.07,11,4,24,0.00
2013-3-3,29.7,25.0,18.6,18.8,15.9,12.2,89,68,50,30.08,30.03,8,3,16,0.00
2013-3-4,35.8,27.0,14.9,20.2,15.3,8.1,100,64,33,30.13,30.02,4,1,10,0.00
2013-3-5,30.7,29.3,26.6,29.4,23.5,16.4,100,80,55,30.04,29.77,7,3,18,0.00
2013-3-6,34.6,31.4,26.4,33.8,30.1,26.4,100,95,80,30.21,29.88,6,3,17,0.18
2013-3-7,35.2,32.1,23.3,33.2,28.5,22.8,100,88,62,30.39,30.20,6,2,13,0.08
2013-3-8,41.5,29.0,16.4,27.3,21.4,16.4,100,77,45,30.47,30.35,4,0,11,0.00
2013-3-9,42.8,35.8,25.7,34.9,28.7,22.1,100,76,58,30.34,29.87,7,3,16,0.00
2013-3-10,55.3,47.9,40.2,49.7,42.2,33.3,100,82,63,29.87,29.61,7,2,17,0.22
2013-3-11,53.1,24.6,34.0,50.1,-15.5,-99.9,100,59,69,29.69,29.46,6,-397,21,0.12
2013-3-12,34.0,32.2,29.0,34.0,30.2,22.0,100,93,67,29.89,29.69,8,4,19,0.03
2013-3-13,29.4,27.3,24.2,28.7,19.7,10.3,100,75,47,30.25,29.89,12,7,26,0.00
2013-3-14,37.5,31.3,23.6,32.1,20.2,10.1,100,66,34,30.25,30.07,5,2,11,0.03
2013-3-15,38.6,34.0,30.0,38.0,33.9,30.0,100,100,91,30.07,29.77,5,1,11,0.06
2013-3-16,34.7,28.0,28.7,34.7,15.5,-99.9,100,82,72,30.06,29.65,9,-102,20,0.01
2013-3-17,35.8,30.9,28.2,24.3,19.5,16.2,78,63,48,30.19,30.04,8,3,17,0.00
2013-3-18,34.1,28.6,27.0,34.1,21.9,-99.9,100,88,70,30.04,29.54,9,-43,20,0.06
2013-3-19,31.2,25.5,20.3,25.9,16.3,13.4,92,68,51,30.00,29.67,12,7,28,0.00
2013-3-20,28.8,21.7,18.0,18.8,13.9,8.9,100,72,58,30.00,29.94,9,6,20,0.00
2013-3-21,27.9,24.4,18.3,25.8,19.0,14.7,100,81,61,29.98,29.90,8,4,18,0.01
2013-3-22,33.1,28.7,24.1,25.5,20.8,16.5,100,73,61,30.04,29.97,6,2,12,0.01
2013-3-23,36.5,28.5,21.8,27.0,23.9,21.6,100,84,58,30.10,29.99,6,1,13,0.00
2013-3-24,38.8,31.6,25.7,28.1,25.2,20.4,100,79,56,30.00,29.60,6,2,19,0.00
2013-3-25,36.5,33.0,30.1,32.2,27.1,22.3,93,79,65,29.96,29.59,12,6,24,0.00
2013-3-26,36.9,34.3,32.7,35.3,33.0,28.6,100,95,80,30.16,29.96,10,4,21,0.00
2013-3-27,40.8,36.2,29.3,36.8,29.5,18.8,100,79,43,30.25,30.16,10,3,19,0.00
2013-3-28,42.9,35.2,28.4,34.0,29.3,24.5,100,81,53,30.28,30.24,6,2,12,0.00
2013-3-29,45.7,34.6,22.9,35.2,22.8,13.6,100,69,28,30.28,30.20,6,2,14,0.00
2013-3-30,56.9,40.6,22.2,37.6,27.5,16.7,100,67,28,30.21,29.83,3,0,9,0.00
2013-3-31,53.5,45.0,35.5,46.1,39.9,28.3,100,84,57,29.83,29.62,11,4,22,0.01
2013-4-1,36.6,31.4,27.2,36.6,18.8,10.2,100,60,42,30.11,29.77,13,6,25,0.00
2013-4-2,36.5,32.0,25.1,23.7,16.6,6.1,89,54,31,30.26,30.10,9,4,20,0.00
2013-4-3,39.1,29.6,20.8,26.1,17.9,6.6,100,67,29,30.42,30.26,9,2,17,0.00
2013-4-4,53.3,39.1,22.4,35.9,19.5,12.1,100,53,21,30.31,29.90,7,1,14,0.00
2013-4-5,48.0,37.8,32.1,36.8,27.7,12.9,100,69,29,30.16,29.89,10,4,19,0.00
2013-4-6,64.3,48.6,33.2,45.9,30.0,22.8,92,52,29,30.12,29.57,11,4,27,0.00
2013-4-7,62.3,46.5,37.9,52.6,40.2,33.0,100,80,48,29.94,29.53,9,4,29,0.01
2013-4-8,63.1,44.8,37.6,59.8,42.4,33.9,100,92,73,29.93,29.58,12,4,29,0.23
2013-4-9,64.3,34.0,39.5,64.2,-0.3,-99.9,100,65,92,29.97,29.73,5,-342,11,0.05
2013-4-10,47.9,44.0,39.3,47.9,44.0,39.3,100,100,100,29.92,29.80,9,2,18,0.15
2013-5-26,67.9,64.6,60.2,50.4,43.0,38.7,70,46,35,30.16,30.10,2,0,26,0.00
2013-5-27,61.2,56.0,53.2,56.2,51.4,37.6,100,87,43,30.11,29.84,6,2,16,0.00
2013-5-28,76.5,48.3,55.0,76.5,19.8,-99.9,100,71,100,29.84,29.68,8,-284,10,0.19
2013-5-29,79.9,50.1,65.3,79.9,16.8,-99.9,100,65,81,29.90,29.71,3,-324,11,0.01
2013-5-30,83.4,74.0,67.3,79.9,72.7,67.3,100,96,74,29.89,29.77,4,1,17,0.03
2013-5-31,75.1,66.0,64.8,75.1,57.4,-99.9,100,92,100,29.83,29.68,4,-78,14,0.15
2013-6-1,76.8,66.4,60.1,73.9,61.2,-99.9,100,93,80,29.71,29.59,6,-44,12,0.51
2013-6-2,61.0,42.2,45.8,61.0,22.5,-99.9,100,78,75,29.97,29.59,8,-176,21,0.01
2013-6-3,61.2,48.4,39.9,52.4,35.8,-99.9,100,76,49,30.06,29.97,5,-69,12,0.00
2013-6-4,71.1,56.2,44.2,59.2,44.7,-99.9,100,75,43,30.12,30.03,5,-34,13,0.00
2013-6-5,75.1,64.4,56.9,58.4,51.8,46.7,100,65,42,30.05,29.87,3,0,10,0.00
2013-6-6,67.4,61.1,55.1,62.2,55.8,49.3,100,84,61,29.89,29.79,3,0,11,0.00
2013-6-7,67.3,57.5,49.4,61.5,53.5,46.7,100,88,59,29.86,29.82,6,1,14,0.00
2013-6-8,69.9,56.8,45.1,60.1,45.4,-99.9,100,75,33,29.95,29.83,4,-34,10,0.00
2013-6-9,79.4,67.9,54.4,70.9,63.3,54.4,100,87,56,29.95,29.76,4,1,12,0.00
2013-6-10,72.5,55.7,58.3,70.9,39.1,-99.9,100,84,85,29.77,29.66,5,-150,11,0.52
2013-6-11,80.1,43.5,57.3,76.8,1.0,-99.9,100,54,73,29.86,29.72,6,-398,11,0.00
2013-6-12,83.0,72.3,63.5,83.0,72.1,63.5,100,100,90,29.82,29.48,12,0,30,0.08
2013-6-13,65.3,59.8,55.6,65.3,59.5,55.6,100,99,93,29.93,29.54,10,4,37,0.02
2013-6-14,71.5,60.3,51.1,66.7,57.6,51.1,100,92,65,30.04,29.93,5,1,14,0.00
2013-6-15,71.5,59.8,53.2,71.5,54.1,-99.9,100,94,96,30.00,29.80,4,-56,10,0.05
2013-6-16,78.6,69.8,63.4,73.4,65.6,-99.9,100,90,58,29.83,29.75,4,-10,13,0.12
2013-6-17,84.7,63.8,57.0,73.0,41.6,-99.9,100,65,31,29.85,29.75,5,-114,17,0.01
2013-6-18,74.0,65.7,58.0,65.8,60.5,53.5,100,85,58,29.99,29.80,3,0,11,0.00
2013-6-19,74.4,61.7,49.9,58.3,49.5,35.1,100,70,27,30.09,29.98,4,0,11,0.00
2013-6-20,83.8,66.9,50.1,69.9,57.9,-99.9,100,79,46,30.10,30.02,2,-11,8,0.00
2013-6-21,84.0,72.1,62.6,76.2,69.8,62.6,100,93,64,30.06,29.89,5,0,19,0.06
2013-6-22,82.4,74.3,66.8,82.2,74.3,66.8,100,100,97,30.01,29.86,4,0,14,0.00
2013-6-23,85.5,76.1,67.1,81.6,73.8,67.1,100,93,66,29.96,29.86,3,0,10,0.00
2013-6-24,84.5,75.0,66.3,80.7,72.9,66.3,100,94,67,29.98,29.78,2,0,10,0.00
2013-6-25,81.4,57.8,66.1,81.2,36.1,-99.9,100,79,100,29.90,29.71,6,-210,13,0.08
2013-6-26,81.8,44.4,68.3,81.1,3.5,-99.9,100,59,85,29.80,29.63,5,-400,10,0.12
2013-6-27,80.3,71.2,63.2,80.1,71.2,63.2,100,100,97,29.69,29.59,3,0,12,0.02
2013-6-28,76.1,68.8,62.3,71.8,67.5,62.1,100,96,77,29.60,29.50,4,1,12,0.00
2013-6-29,72.7,57.7,60.9,72.7,44.8,-99.9,100,87,100,29.66,29.47,6,-128,17,0.00
2013-6-30,77.6,68.3,61.6,74.8,67.3,61.6,100,97,69,29.88,29.66,5,1,12,0.00
2013-7-1,76.5,66.2,56.0,64.0,55.8,45.8,100,70,47,29.99,29.88,3,0,11,0.00
2013-7-2,65.5,45.6,56.6,64.2,18.2,-99.9,100,68,61,30.00,29.96,5,-249,7,0.41
2013-7-3,77.7,33.4,62.6,77.2,-20.5,-99.9,100,46,88,30.00,29.93,3,-537,11,0.04
2013-7-4,77.2,68.6,59.3,75.3,66.8,59.3,100,94,70,30.05,29.98,2,0,7,0.00
2013-7-5,81.2,71.6,62.4,76.8,67.9,54.8,100,90,43,30.03,29.94,2,0,7,0.00
2013-7-6,80.7,71.5,64.5,80.1,71.4,64.5,100,100,88,30.00,29.90,2,0,7,0.01
2013-7-7,84.1,75.3,68.3,83.0,74.9,68.3,100,99,83,29.95,29.86,1,0,6,0.00
2013-7-8,79.2,75.9,74.0,79.0,75.9,74.0,100,100,100,29.95,29.85,2,0,10,0.01
2013-7-9,85.1,64.8,69.3,84.9,48.2,-99.9,100,83,99,29.90,29.77,2,-165,11,0.00
2013-7-10,79.8,74.9,61.8,79.8,72.8,61.8,100,93,72,29.90,29.73,8,2,21,0.00
2013-7-11,74.9,63.6,57.6,69.8,55.2,-99.9,100,83,59,30.02,29.91,6,-38,12,0.00
2013-7-12,78.6,63.4,54.8,73.2,54.2,-99.9,100,84,63,30.08,29.99,4,-57,12,0.00
2013-7-13,83.4,68.2,57.0,76.7,59.4,-99.9,100,83,65,30.10,30.03,3,-45,8,0.00
2013-7-14,88.2,77.3,66.1,81.4,74.1,66.1,100,91,68,30.13,30.09,2,0,9,0.00
2013-7-15,89.5,63.5,71.6,87.6,44.6,-99.9,100,81,80,30.18,30.13,3,-179,8,0.62
2013-7-16,88.4,47.9,76.1,87.2,3.1,-99.9,100,53,82,30.26,30.14,2,-438,7,0.00
2013-7-17,88.4,80.4,72.3,86.4,79.7,72.3,100,98,85,30.22,30.07,2,0,8,0.00
2013-7-18,91.8,82.4,73.7,87.8,80.6,73.7,100,95,68,30.09,29.86,2,0,8,0.00
2013-7-19,92.7,83.5,76.0,86.8,80.5,76.0,100,92,67,29.87,29.64,4,1,18,0.04
2013-7-20,82.2,77.4,71.1,78.6,73.4,64.5,100,89,59,29.84,29.66,5,1,17,0.01
2013-7-21,84.0,73.4,62.9,79.5,71.0,62.7,100,93,72,29.90,29.78,7,0,10,0.41
2013-7-22,81.4,74.2,64.7,81.1,73.7,64.5,100,99,78,29.83,29.65,3,0,13,0.00
2013-7-23,75.8,70.0,60.1,75.8,69.0,55.0,100,97,83,29.86,29.58,10,3,25,0.00
2013-7-24,68.1,60.5,51.1,63.7,56.2,50.4,100,87,59,29.98,29.86,6,1,13,0.00
2013-7-25,73.5,62.9,52.9,67.3,59.1,52.9,100,89,55,30.04,29.97,3,0,10,0.00
2013-7-26,73.2,66.1,57.8,71.7,65.8,57.8,100,99,86,29.99,29.80,1,0,7,0.00
2013-7-27,67.6,57.8,57.5,67.4,48.9,-99.9,100,89,74,29.82,29.76,6,-80,16,0.01
2013-7-28,64.0,59.3,54.8,62.4,58.3,54.8,100,97,77,29.92,29.76,4,1,11,0.07
2013-7-29,66.6,62.5,55.0,64.4,61.7,55.0,100,97,85,30.13,29.90,5,1,14,0.00
2013-7-30,76.7,57.9,52.2,73.3,43.5,-99.9,100,81,71,30.15,30.01,2,-119,5,0.00
2013-7-31,72.5,51.8,63.4,72.3,29.4,-99.9,100,78,100,30.01,29.86,3,-224,8,0.02
2013-8-1,75.6,46.5,59.3,75.4,10.3,-99.9,100,60,63,29.89,29.84,3,-343,12,0.00
2013-8-2,77.4,62.1,56.7,77.4,56.4,-99.9,100,94,100,29.88,29.76,3,-57,8,0.18
2013-8-3,75.4,59.5,57.8,74.4,43.6,-99.9,100,76,60,30.02,29.84,6,-117,17,0.00
2013-8-4,70.3,62.7,55.9,65.5,59.2,54.8,100,89,60,30.13,30.02,5,1,14,0.00
2013-8-5,72.5,62.7,52.0,72.5,62.3,52.0,100,99,82,30.07,29.84,3,0,7,0.00
2013-8-6,79.9,57.9,66.3,79.9,36.6,-99.9,100,79,100,29.85,29.76,2,-213,6,0.03
2013-8-7,83.8,59.9,64.7,83.8,39.7,-99.9,100,80,100,29.86,29.70,7,-202,7,0.95
2013-8-8,76.5,68.4,62.6,71.3,65.6,60.0,100,92,61,29.94,29.85,4,1,12,0.00
2013-8-9,77.4,68.6,57.6,74.2,65.1,57.6,100,90,59,29.94,29.89,3,0,7,0.00
2013-8-10,77.4,70.1,63.2,71.8,63.6,-99.9,100,84,52,30.04,29.93,4,1,12,0.00
2013-8-11,75.3,67.3,58.3,71.6,63.9,58.3,100,90,64,30.06,29.97,3,0,8,0.00
2013-8-12,79.0,59.4,63.4,78.8,44.9,-99.9,100,85,91,29.97,29.78,2,-144,7,0.25
2013-8-13,66.3,45.1,56.3,63.4,13.6,-99.9,100,61,66,30.06,29.82,9,-276,18,0.00
2013-8-14,66.0,57.7,48.5,61.3,53.5,48.4,100,88,56,30.14,30.06,5,1,12,0.00
2013-8-15,73.2,60.6,49.5,68.8,58.4,49.5,100,93,70,30.11,30.04,3,0,10,0.00
2013-8-16,76.8,62.0,55.4,70.8,52.7,-99.9,100,83,53,30.12,30.05,4,-48,10,0.00
2013-8-17,79.4,63.2,54.8,70.8,53.5,-99.9,100,81,53,30.18,30.10,2,-45,7,0.00
2013-8-18,79.2,63.3,55.6,71.1,56.1,-99.9,100,86,63,30.15,30.04,4,-37,11,0.00
2013-8-19,80.9,64.0,57.8,74.6,52.8,-99.9,100,82,58,30.06,29.96,2,-71,7,0.00
2013-8-20,82.8,68.5,63.4,79.9,60.3,-99.9,100,87,71,30.06,29.97,2,-60,8,0.00
2013-8-21,87.8,76.1,65.6,80.5,72.0,65.6,100,89,55,30.02,29.88,2,0,8,0.00
2013-8-22,79.8,49.8,65.5,79.8,19.5,-99.9,100,70,100,30.03,29.90,9,-303,21,0.32
2013-8-23,81.8,44.9,59.9,74.7,0.5,-99.9,100,47,51,30.10,30.00,4,-393,8,0.00
2013-8-24,81.6,65.9,55.6,73.2,58.8,-99.9,100,84,54,30.22,30.10,3,-22,8,0.00
2013-8-25,87.4,72.0,58.6,79.2,68.2,58.6,100,90,59,30.20,30.06,2,0,10,0.00
2013-8-26,85.1,76.2,67.4,84.5,75.6,67.4,100,98,87,30.08,29.90,1,0,10,0.00
2013-8-27,91.2,82.2,74.0,86.3,80.3,74.0,100,95,69,29.91,29.73,4,0,13,0.00
2013-8-28,83.0,68.7,66.4,82.7,59.2,-99.9,100,90,95,29.95,29.71,5,-93,14,0.00
2013-8-29,85.5,52.0,64.5,83.8,19.8,-99.9,100,66,68,30.01,29.90,3,-314,11,0.00
2013-8-30,91.6,67.6,65.3,86.6,53.7,-99.9,100,83,72,29.90,29.63,4,-120,11,0.06
2013-8-31,80.9,68.5,62.9,80.9,63.4,-99.9,100,95,100,29.78,29.69,3,-45,10,0.00
2013-9-1,80.1,73.9,67.3,80.1,73.9,67.3,100,100,94,29.74,29.64,2,0,8,0.00
2013-9-2,73.7,68.1,60.1,73.7,67.8,60.1,100,99,88,29.90,29.66,7,2,17,0.00
2013-9-3,69.3,63.0,56.5,68.4,61.9,56.5,100,96,82,30.00,29.89,5,1,13,0.00
2013-9-4,76.0,53.5,53.6,73.7,31.6,-99.9,100,74,70,30.04,29.97,3,-199,12,0.00
2013-9-5,73.7,59.7,55.1,64.2,45.9,-99.9,100,76,27,30.18,30.03,4,-71,11,0.00
2013-9-6,79.9,64.2,49.9,75.3,60.4,49.9,100,89,57,30.19,29.96,3,0,7,0.00
2013-9-7,83.0,71.4,64.2,77.9,70.1,64.2,100,96,68,29.96,29.82,2,0,12,0.01
2013-9-8,81.6,53.7,67.8,78.4,24.6,-99.9,100,69,81,29.96,29.86,2,-282,10,0.00
2013-9-9,88.8,75.4,64.7,87.5,75.0,64.7,100,99,87,29.92,29.74,3,1,10,0.00
2013-9-10,93.2,82.6,74.6,82.4,76.1,70.1,100,83,50,29.91,29.77,2,0,14,0.00
2013-9-11,86.1,76.8,70.4,81.7,76.0,70.4,100,97,74,29.96,29.88,4,0,14,0.00
2013-9-12,75.3,70.1,59.6,74.7,65.5,52.5,100,86,54,29.97,29.83,7,2,20,0.00
2013-9-13,60.7,55.7,48.2,55.0,49.4,43.6,100,81,59,30.08,29.97,8,2,20,0.00
2013-9-14,66.4,52.1,42.5,58.4,43.5,-99.9,100,82,53,30.14,30.00,3,-34,11,0.00
2013-9-15,64.3,43.7,48.3,64.2,21.1,-99.9,100,77,84,30.08,29.97,0,-224,2,0.08
2013-9-16,65.8,38.6,52.5,62.9,1.4,-99.9,100,59,69,30.28,30.07,4,-356,12,0.00
2013-9-17,70.3,57.6,47.0,63.4,54.3,47.0,100,90,59,30.32,30.09,3,0,8,0.00
2013-9-18,78.5,66.0,55.9,72.3,63.4,55.9,100,93,65,30.09,29.88,3,0,11,0.00
2013-9-19,72.5,23.5,65.8,72.5,-42.3,-99.9,100,34,100,29.94,29.75,1,-658,3,0.01
2013-9-20,-200.0,0.0,200.0,-99.9,-99.9,-99.9,0,0,100,29.77,29.68,0,-999,0,0.00
2013-9-21,-200.0,0.0,200.0,-99.9,-99.9,-99.9,0,0,100,29.84,29.67,0,-999,0,0.00
2013-9-22,60.9,13.3,57.2,50.7,-66.8,-99.9,79,15,60,30.00,29.84,6,-775,16,0.00
2013-9-23,67.4,17.6,62.3,56.7,-59.0,-99.9,81,18,61,30.08,29.99,6,-730,9,0.00
2013-9-24,70.1,23.4,55.0,61.4,-44.2,-99.9,100,26,52,30.05,29.88,3,-639,7,0.00
2013-9-25,74.2,13.9,67.8,66.1,-68.8,-99.9,94,13,59,29.93,29.85,4,-804,8,0.00
2013-9-26,80.1,29.7,54.2,63.5,-35.1,-99.9,100,26,29,30.03,29.90,3,-577,7,0.00
2013-9-27,79.0,30.8,60.1,65.5,-33.5,-99.9,100,26,36,30.14,30.01,4,-578,10,0.00
2013-9-28,79.8,35.2,68.1,66.5,-22.2,-99.9,94,34,48,30.06,29.85,6,-524,16,0.00
2013-9-29,70.3,13.0,66.3,69.1,-68.8,-99.9,100,17,86,29.95,29.83,3,-812,14,0.04
2013-9-30,70.6,16.9,67.3,65.5,-60.2,-99.9,94,19,63,29.94,29.83,4,-754,13,0.00
2013-10-1,-200.0,0.0,200.0,-99.9,-99.9,-99.9,0,0,100,29.92,29.83,0,-999,0,0.00
2013-10-2,78.1,29.9,59.3,63.7,-36.1,-99.9,100,23,29,30.03,29.87,2,-583,7,0.00
2013-10-3,-200.0,0.0,200.0,-99.9,-99.9,-99.9,0,0,100,29.94,29.81,0,-999,0,0.00
2013-10-4,-200.0,0.0,200.0,-99.9,-99.9,-99.9,0,0,100,29.94,29.83,0,-999,0,0.00
2013-10-5,-200.0,0.0,200.0,-99.9,-99.9,-99.9,0,0,100,29.90,29.73,0,-999,0,0.00
2013-10-6,59.3,3.0,56.5,58.1,-91.8,-99.9,99,5,85,29.74,29.62,3,-947,10,0.00
2013-10-7,63.2,23.3,52.5,57.2,-38.5,-99.9,100,34,69,30.03,29.65,10,-600,17,0.02
2013-10-8,73.9,23.8,58.7,61.6,-45.2,-99.9,100,24,48,30.14,30.03,5,-652,7,0.00
2013-10-9,72.5,25.5,55.1,61.0,-41.8,-99.9,100,24,38,30.22,30.08,3,-617,10,0.00
2013-10-10,74.4,20.4,60.4,65.2,-53.1,-99.9,100,21,52,30.13,30.01,2,-707,8,0.00
2013-10-11,74.9,27.3,57.2,61.0,-40.2,-99.9,100,23,37,30.06,29.93,2,-607,6,0.00
2013-10-12,76.0,20.3,68.9,72.5,-54.4,-99.9,100,21,66,30.04,29.88,3,-726,10,0.00
2013-10-13,61.5,38.9,47.1,56.1,2.8,-99.9,100,55,65,30.31,30.04,6,-317,17,0.00
2013-10-14,65.6,23.8,50.1,54.8,-40.8,-99.9,100,29,56,30.36,30.14,3,-602,8,0.00
2013-10-15,65.6,2.2,65.3,65.6,-94.3,-99.9,100,3,100,30.14,29.73,6,-962,11,0.00
2013-10-16,59.9,15.5,54.2,59.6,-56.7,-99.9,100,28,97,29.83,29.76,2,-722,10,0.00
2013-10-17,59.3,13.2,54.2,59.3,-64.1,-99.9,100,23,100,29.83,29.71,1,-772,6,0.04
2013-10-18,62.0,47.7,51.9,61.8,33.9,-99.9,100,85,84,29.86,29.77,3,-131,17,0.01
2013-10-19,56.5,41.6,46.4,56.2,18.8,-99.9,100,68,52,29.84,29.70,5,-185,14,0.06
2013-10-20,59.3,45.9,45.4,55.7,27.5,-99.9,100,72,58,29.82,29.67,4,-138,16,0.05
2013-10-21,56.5,36.8,42.6,54.1,8.5,-99.9,100,63,59,29.88,29.71,6,-245,14,0.01
2013-10-22,44.6,42.1,39.3,43.2,35.6,28.2,100,79,58,29.90,29.83,5,1,17,0.00
2013-10-23,49.1,42.9,37.6,48.9,39.4,26.7,100,89,50,29.92,29.79,6,1,17,0.17
2013-10-24,50.1,34.0,36.9,49.9,13.5,-99.9,100,78,70,30.18,29.90,2,-194,8,0.28
2013-10-25,52.0,46.0,42.1,52.0,41.4,-99.9,100,87,57,30.30,30.01,3,0,11,0.35
2013-10-26,51.6,48.2,44.3,46.1,39.2,33.5,83,71,58,30.01,29.75,7,3,22,0.01
2013-10-27,53.2,45.0,39.3,44.3,39.4,34.1,100,83,52,29.99,29.92,3,0,17,0.00
2013-10-28,55.7,44.3,36.3,48.6,41.0,36.3,100,89,64,30.31,29.99,2,0,7,0.00
2013-10-29,55.1,44.7,37.3,48.7,42.2,37.3,100,92,67,30.34,30.12,3,1,8,0.00
2013-10-30,65.3,55.4,45.4,65.2,54.8,45.4,100,98,79,30.12,29.75,5,1,12,0.36
2013-10-31,68.6,8.1,62.7,68.6,-80.2,-99.9,100,12,100,29.75,29.08,5,-876,14,0.16
2013-11-1,65.5,55.5,50.8,65.5,54.2,46.5,100,96,74,29.62,29.17,7,2,22,0.16
2013-11-2,55.6,49.8,44.2,55.4,49.6,44.1,100,99,85,30.04,29.61,7,2,18,0.08
2013-11-3,52.5,46.8,42.9,49.1,43.5,39.6,100,89,64,30.28,30.04,5,2,11,0.00
2013-11-4,53.3,47.4,41.9,49.1,42.3,37.4,100,84,60,30.30,30.12,8,3,17,0.00
2013-11-5,57.0,54.0,51.1,55.9,52.4,47.0,100,95,81,30.24,29.97,5,1,14,0.00
2013-11-6,65.0,55.4,47.0,64.7,54.7,40.5,100,98,78,30.00,29.71,7,3,18,0.17
2013-11-7,47.3,43.2,41.5,41.9,35.7,31.3,83,75,63,30.15,30.00,7,4,19,0.00
2013-11-8,45.2,41.8,37.9,39.1,32.4,26.7,91,69,56,30.26,30.02,8,2,17,0.00
2013-11-9,55.0,49.7,43.6,49.4,41.8,32.1,90,75,56,30.02,29.79,11,4,29,0.00
2013-11-10,46.2,42.6,37.6,41.2,35.1,25.3,100,76,50,30.25,29.94,12,5,28,0.00
2013-11-11,48.2,38.7,28.8,45.4,36.9,25.2,100,93,77,30.36,30.01,8,2,19,0.27
2013-11-12,34.3,30.7,27.2,32.9,24.6,17.4,100,79,55,30.58,30.36,8,2,19,0.01
2013-11-13,36.5,31.7,24.2,29.8,25.0,19.0,100,77,55,30.51,30.14,3,1,11,0.01
2013-11-14,46.4,38.2,30.7,32.8,26.7,21.5,75,63,51,30.15,29.90,4,1,11,0.03
2013-11-15,49.4,42.6,36.6,40.2,33.6,28.2,100,71,50,29.96,29.91,3,0,10,0.00
2013-11-16,65.5,51.1,40.5,62.9,50.6,35.5,100,98,79,29.94,29.57,8,3,21,0.06
2013-11-17,69.6,61.6,49.5,69.1,61.6,46.7,100,100,91,29.57,29.12,11,4,36,0.42
2013-11-18,49.5,41.1,36.2,48.6,36.1,28.0,100,83,68,30.15,29.56,11,7,25,0.00
2013-11-19,43.2,37.4,32.9,33.2,29.2,-99.9,100,74,55,30.31,30.15,7,2,14,0.00
2013-11-20,44.2,37.3,30.7,41.3,30.8,24.7,100,79,47,30.30,30.09,9,3,17,0.06
2013-11-21,55.7,48.6,41.6,55.7,48.2,41.6,100,98,89,30.15,30.08,3,1,8,0.10
2013-11-22,55.9,37.4,33.5,55.9,26.6,-99.9,100,88,86,30.37,30.09,10,-100,25,0.11
2013-11-23,37.9,29.1,21.1,35.5,20.1,8.6,100,69,51,30.57,30.29,13,8,28,0.00
2013-11-24,25.3,22.9,20.2,21.4,12.4,4.4,100,65,48,30.61,30.36,10,3,21,0.00
2013-11-25,36.9,27.6,20.2,36.9,20.5,5.7,100,76,53,30.36,30.03,3,1,14,0.00
2013-11-26,36.5,32.6,26.0,35.8,29.7,15.8,100,90,51,30.03,29.92,11,2,22,0.01
2013-11-27,37.5,28.7,22.5,34.6,28.4,22.4,100,99,77,30.19,29.99,10,2,24,0.00
2013-11-28,32.9,29.3,26.0,32.9,23.5,17.1,100,79,60,30.39,30.17,4,1,12,0.00
2013-11-29,35.5,30.3,25.6,28.8,24.8,21.3,100,81,60,30.58,30.40,4,1,11,0.01
2013-11-30,43.9,36.1,29.1,36.0,30.0,24.3,100,79,63,30.41,30.01,4,1,12,0.11
2013-12-1,42.8,35.7,29.7,38.5,32.7,28.3,100,90,58,30.04,29.95,6,1,11,0.10
2013-12-2,42.6,36.4,29.7,42.6,32.9,27.0,100,88,58,29.95,29.77,5,1,10,0.01
2013-12-3,56.6,42.4,36.2,56.3,34.2,-99.9,100,92,95,29.78,29.65,5,-81,12,0.21
2013-12-4,67.9,25.9,62.1,66.9,-34.0,-99.9,100,40,100,29.71,29.46,5,-598,12,0.00
2013-12-5,63.7,40.0,31.8,63.7,36.5,24.7,100,87,69,30.16,29.49,8,5,19,0.00
2013-12-6,31.8,27.6,24.5,26.7,21.4,14.9,84,77,67,30.40,30.14,7,4,13,0.00
2013-12-7,24.5,21.2,17.3,20.8,15.4,11.2,100,79,66,30.61,30.40,7,3,14,0.00
2013-12-8,33.1,22.7,17.5,33.1,20.1,11.6,100,90,65,30.54,29.90,4,1,10,0.00
2013-12-9,37.9,27.1,17.3,35.0,23.3,10.3,100,86,65,30.13,29.85,8,4,21,0.00
2013-12-10,24.7,18.0,6.1,21.3,10.9,-4.0,100,74,55,30.21,29.95,8,4,24,0.00
2013-12-11,25.7,20.6,14.6,25.7,15.7,4.7,100,82,56,30.45,30.21,9,4,22,0.00
2013-12-12,26.7,17.0,6.5,23.5,10.5,-8.2,89,76,48,30.46,30.17,5,2,17,0.00
2013-12-13,31.5,25.4,18.4,24.7,21.0,15.7,100,84,70,30.17,30.10,2,1,11,0.00
2013-12-14,29.7,26.5,22.5,29.3,26.4,22.5,100,99,84,30.12,29.85,4,2,12,0.00
2013-12-15,31.8,23.7,19.9,30.4,18.5,9.6,100,81,61,30.03,29.82,10,5,21,0.00
2013-12-16,23.2,20.1,14.1,22.2,14.4,9.2,100,79,57,30.13,29.96,5,1,12,0.00
2013-12-17,35.3,30.1,21.6,34.4,27.1,20.9,100,90,60,29.97,29.85,7,2,19,0.00
2013-12-18,33.4,29.7,26.4,25.5,19.9,11.6,83,67,47,30.11,29.80,6,3,17,0.00
2013-12-19,42.1,39.4,33.1,41.8,37.6,-99.9,100,95,71,29.90,29.77,2,0,14,0.28
2013-12-20,50.2,10.0,42.1,50.2,-68.7,-99.9,100,21,100,29.77,29.64,1,-786,3,0.13
2013-12-21,-200.0,0.0,200.0,-99.9,-99.9,-99.9,0,0,100,29.75,29.54,0,-999,0,0.00
2013-12-22,54.7,42.4,42.2,54.7,33.9,-99.9,100,91,100,29.96,29.45,4,-85,10,0.74
2013-12-23,43.9,33.6,20.0,43.8,31.5,17.8,100,92,74,30.33,29.96,7,3,21,0.00
2013-12-24,24.4,19.4,14.1,24.4,19.4,14.1,100,100,95,30.48,30.32,2,0,13,0.00
2013-12-25,36.8,28.2,21.8,36.5,26.9,18.0,100,95,74,30.41,30.02,4,1,13,0.00
2013-12-26,37.0,31.1,27.9,36.8,28.0,20.2,100,88,70,30.21,30.00,6,2,14,0.00
2013-12-27,42.5,38.5,32.9,42.1,36.0,32.2,100,91,71,30.23,30.00,2,0,16,0.14
2013-12-28,48.3,42.1,35.5,39.1,36.6,33.7,100,82,65,30.05,29.80,4,1,19,0.05
2013-12-29,39.8,33.0,22.9,38.8,30.5,14.9,100,91,72,30.05,29.69,13,5,26,0.00
2013-12-30,22.9,19.0,16.7,20.4,13.7,7.8,100,80,62,30.25,30.05,7,2,17,0.00
2013-12-31,20.2,17.7,15.9,20.2,16.0,12.0,100,93,79,30.30,30.09,6,2,17,0.00
2014-1-1,21.1,17.4,13.3,21.1,16.9,11.4,100,98,91,30.31,30.17,2,1,8,0.00
2014-1-2,17.3,13.2,-1.4,16.8,6.6,-5.1,98,76,49,30.35,30.09,6,2,19,0.00